Time;durP1;ratioP1;P1;durP2;ratioP2;P2;SDS_P1;SDS_P2;PMS_P1;PMS_P2;Temp;Humidity;BMP_temperature;BMP_pressure;BME280_temperature;BME280_humidity;BME280_pressure;Samples;Min_cycle;Max_cycle;Signal;HPM_P1;HPM_P2
2021/05/15 00:01:37;;;;;;;13.37;5.73;;;11.90;99.90;;;;;;4956261;28;20263;-71
2021/05/15 00:04:05;;;;;;;10.00;5.13;;;11.80;99.90;;;;;;4958233;29;20223;-71
2021/05/15 00:06:31;;;;;;;8.53;5.13;;;11.90;99.90;;;;;;4958321;29;20204;-71
2021/05/15 00:08:58;;;;;;;11.30;5.37;;;12.00;99.90;;;;;;4958040;29;20219;-71
2021/05/15 00:11:24;;;;;;;11.53;5.50;;;11.90;99.90;;;;;;4957866;29;20571;-71
2021/05/15 00:13:51;;;;;;;9.80;5.17;;;11.80;99.90;;;;;;4957916;29;20714;-70
2021/05/15 00:16:19;;;;;;;12.37;5.13;;;11.70;99.90;;;;;;4958113;29;20208;-70
2021/05/15 00:18:45;;;;;;;13.00;5.57;;;11.80;99.90;;;;;;4958067;29;20235;-70
2021/05/15 00:21:12;;;;;;;8.53;4.67;;;11.80;99.90;;;;;;4958258;29;20208;-70
2021/05/15 00:23:38;;;;;;;9.40;5.07;;;11.80;99.90;;;;;;4957880;29;20231;-70
2021/05/15 00:26:05;;;;;;;10.00;4.87;;;11.80;99.90;;;;;;4957750;29;20212;-70
2021/05/15 00:28:32;;;;;;;10.70;4.80;;;11.80;99.90;;;;;;4957971;29;20215;-70
2021/05/15 00:31:00;;;;;;;11.90;5.37;;;11.90;99.90;;;;;;4958119;29;20204;-69
2021/05/15 00:33:26;;;;;;;10.10;5.07;;;12.00;99.90;;;;;;4957815;29;20279;-70
2021/05/15 00:35:52;;;;;;;10.10;4.90;;;12.10;99.90;;;;;;4957790;29;20297;-70
2021/05/15 00:38:18;;;;;;;8.77;5.10;;;12.00;99.90;;;;;;4957621;29;20243;-70
2021/05/15 00:40:45;;;;;;;8.73;5.23;;;11.90;99.90;;;;;;4957424;29;20215;-70
2021/05/15 00:43:11;;;;;;;9.37;4.80;;;11.90;99.90;;;;;;4957630;29;20224;-70
2021/05/15 00:45:38;;;;;;;10.30;5.40;;;11.90;99.90;;;;;;4957753;29;20219;-70
2021/05/15 00:48:06;;;;;;;9.87;4.70;;;11.90;99.90;;;;;;4957680;29;20614;-70
2021/05/15 00:50:32;;;;;;;9.37;4.83;;;11.90;99.90;;;;;;4957445;29;20208;-70
2021/05/15 00:52:59;;;;;;;9.27;4.83;;;11.90;99.90;;;;;;4957251;29;20228;-70
2021/05/15 00:55:26;;;;;;;9.03;4.97;;;11.90;99.90;;;;;;4957367;29;20227;-70
2021/05/15 00:57:55;;;;;;;9.50;5.27;;;11.80;99.90;;;;;;4957007;29;20287;-70
2021/05/15 01:00:22;;;;;;;11.00;4.63;;;11.80;99.90;;;;;;4957311;29;20798;-70
2021/05/15 01:02:49;;;;;;;10.10;4.73;;;11.80;99.90;;;;;;4957265;29;20232;-70
2021/05/15 01:05:16;;;;;;;12.27;5.67;;;11.90;99.90;;;;;;4957267;29;20216;-70
2021/05/15 01:07:44;;;;;;;12.40;5.27;;;11.80;99.90;;;;;;4957090;29;20263;-70
2021/05/15 01:10:12;;;;;;;11.10;4.97;;;11.80;99.90;;;;;;4957152;29;20208;-70
2021/05/15 01:12:45;;;;;;;12.60;5.03;;;11.90;99.90;;;;;;4955940;28;20251;-69
2021/05/15 01:15:12;;;;;;;9.10;4.50;;;11.90;99.90;;;;;;4957119;29;20235;-71
2021/05/15 01:17:39;;;;;;;11.33;5.23;;;11.90;99.90;;;;;;4956997;29;20203;-70
2021/05/15 01:20:06;;;;;;;9.80;5.40;;;11.90;99.90;;;;;;4956848;29;20208;-70
2021/05/15 01:22:33;;;;;;;11.77;5.13;;;11.90;99.90;;;;;;4956640;29;20227;-70
2021/05/15 01:24:59;;;;;;;8.83;5.37;;;11.90;99.90;;;;;;4956949;29;20212;-70
2021/05/15 01:27:25;;;;;;;11.40;5.73;;;11.90;99.90;;;;;;4956660;29;20208;-70
2021/05/15 01:29:52;;;;;;;9.93;5.00;;;11.90;99.90;;;;;;4956588;29;20220;-70
2021/05/15 01:32:18;;;;;;;10.20;5.00;;;11.80;99.90;;;;;;4956648;29;20228;-70
2021/05/15 01:34:44;;;;;;;12.47;5.00;;;11.90;99.90;;;;;;4956508;29;20357;-70
2021/05/15 01:37:11;;;;;;;11.30;4.77;;;11.90;99.90;;;;;;4956452;29;20219;-70
2021/05/15 01:39:38;;;;;;;9.87;5.03;;;11.90;99.90;;;;;;4956614;29;20239;-70
2021/05/15 01:42:04;;;;;;;8.10;4.40;;;11.80;99.90;;;;;;4956081;29;20283;-70
2021/05/15 01:44:31;;;;;;;10.57;5.30;;;11.80;99.90;;;;;;4956493;29;20267;-70
2021/05/15 01:46:57;;;;;;;9.17;4.70;;;11.90;99.90;;;;;;4956345;29;20290;-70
2021/05/15 01:49:24;;;;;;;12.17;5.60;;;11.90;99.90;;;;;;4956106;29;20666;-70
2021/05/15 01:51:50;;;;;;;8.90;4.93;;;11.90;99.90;;;;;;4956511;29;20602;-71
2021/05/15 01:54:16;;;;;;;9.93;4.70;;;11.90;99.90;;;;;;4956420;29;20215;-70
2021/05/15 01:56:43;;;;;;;8.40;4.77;;;11.90;99.90;;;;;;4956106;29;20212;-70
2021/05/15 01:59:10;;;;;;;9.07;4.73;;;12.00;99.90;;;;;;4956106;29;20239;-70
2021/05/15 02:01:37;;;;;;;11.37;5.27;;;12.10;99.90;;;;;;4956098;29;20208;-70
2021/05/15 02:04:03;;;;;;;9.93;5.20;;;12.10;99.90;;;;;;4956086;29;20204;-70
2021/05/15 02:06:30;;;;;;;11.40;5.17;;;12.00;99.90;;;;;;4956215;29;20222;-70
2021/05/15 02:08:56;;;;;;;10.40;5.23;;;11.90;99.90;;;;;;4956063;29;20247;-70
2021/05/15 02:11:22;;;;;;;13.33;5.40;;;12.00;99.90;;;;;;4956029;29;20216;-70
2021/05/15 02:13:50;;;;;;;8.70;4.50;;;12.00;99.90;;;;;;4956011;29;20247;-70
2021/05/15 02:16:17;;;;;;;11.43;5.03;;;12.00;99.90;;;;;;4955788;29;20208;-71
2021/05/15 02:18:43;;;;;;;8.40;4.57;;;12.00;99.90;;;;;;4955587;29;20259;-70
2021/05/15 02:21:10;;;;;;;8.27;5.30;;;12.00;99.90;;;;;;4955155;29;20203;-70
2021/05/15 02:23:36;;;;;;;9.67;4.70;;;12.00;99.90;;;;;;4955224;28;20227;-70
2021/05/15 02:26:03;;;;;;;12.10;4.90;;;12.00;99.90;;;;;;4955584;29;20204;-70
2021/05/15 02:28:30;;;;;;;13.90;5.27;;;11.80;99.90;;;;;;4955526;29;20215;-70
2021/05/15 02:30:57;;;;;;;10.27;5.03;;;11.80;99.90;;;;;;4955535;29;20545;-70
2021/05/15 02:33:24;;;;;;;11.77;5.10;;;11.80;99.90;;;;;;4955722;29;20227;-70
2021/05/15 02:35:51;;;;;;;9.77;4.53;;;11.80;99.90;;;;;;4955592;29;20204;-70
2021/05/15 02:38:19;;;;;;;8.03;4.77;;;11.70;99.90;;;;;;4955483;29;20240;-70
2021/05/15 02:40:46;;;;;;;9.03;4.53;;;11.70;99.90;;;;;;4955375;29;20208;-70
2021/05/15 02:43:13;;;;;;;9.90;5.40;;;11.80;99.90;;;;;;4955276;29;20227;-70
2021/05/15 02:45:40;;;;;;;11.63;5.10;;;11.80;99.90;;;;;;4955420;29;20207;-70
2021/05/15 02:48:07;;;;;;;12.53;5.20;;;11.80;99.90;;;;;;4955539;29;20240;-70
2021/05/15 02:50:34;;;;;;;10.83;5.20;;;11.90;99.90;;;;;;4955433;29;20212;-70
2021/05/15 02:53:00;;;;;;;10.73;5.13;;;11.90;99.90;;;;;;4955781;29;20243;-70
2021/05/15 02:55:28;;;;;;;11.37;5.07;;;11.80;99.90;;;;;;4955229;29;20216;-69
2021/05/15 02:57:54;;;;;;;12.43;5.33;;;11.80;99.90;;;;;;4954767;29;20211;-70
2021/05/15 03:00:23;;;;;;;9.80;5.03;;;11.80;99.90;;;;;;4954985;29;20220;-70
2021/05/15 03:02:49;;;;;;;8.93;5.30;;;11.80;99.90;;;;;;4955004;29;20232;-70
2021/05/15 03:05:21;;;;;;;9.27;4.97;;;11.80;99.90;;;;;;4955061;29;20208;-70
2021/05/15 03:07:48;;;;;;;11.70;5.00;;;11.80;99.90;;;;;;4955047;29;20298;-69
2021/05/15 03:10:14;;;;;;;9.20;4.97;;;11.80;99.90;;;;;;4954833;29;20219;-69
2021/05/15 03:12:41;;;;;;;11.87;5.03;;;11.80;99.90;;;;;;4954895;29;20238;-69
2021/05/15 03:15:11;;;;;;;9.30;4.60;;;11.80;99.90;;;;;;4955162;29;20204;-69
2021/05/15 03:17:38;;;;;;;12.53;5.27;;;11.70;99.90;;;;;;4955107;29;20214;-70
2021/05/15 03:20:06;;;;;;;9.87;5.57;;;11.60;99.90;;;;;;4954945;29;20296;-70
2021/05/15 03:22:33;;;;;;;12.07;5.27;;;11.70;99.90;;;;;;4954792;29;20228;-69
2021/05/15 03:24:59;;;;;;;11.07;5.43;;;11.70;99.90;;;;;;4954816;29;20208;-70
2021/05/15 03:27:25;;;;;;;10.97;5.97;;;11.70;99.90;;;;;;4954536;29;20220;-70
2021/05/15 03:29:52;;;;;;;10.77;5.43;;;11.60;99.90;;;;;;4954768;29;20671;-70
2021/05/15 03:32:18;;;;;;;11.93;5.30;;;11.60;99.90;;;;;;4954786;29;20242;-70
2021/05/15 03:34:45;;;;;;;11.67;6.20;;;11.60;99.90;;;;;;4954992;29;20215;-70
2021/05/15 03:37:12;;;;;;;13.43;6.90;;;11.70;99.90;;;;;;4957186;28;20219;-71
2021/05/15 03:39:39;;;;;;;16.03;7.77;;;11.80;99.90;;;;;;4958929;29;20231;-70
2021/05/15 03:42:05;;;;;;;20.13;9.00;;;11.70;99.90;;;;;;4958305;29;20267;-70
2021/05/15 03:44:32;;;;;;;21.23;9.17;;;11.70;99.90;;;;;;4958663;29;20211;-70
2021/05/15 03:46:58;;;;;;;21.80;9.67;;;11.70;99.90;;;;;;4958608;29;20214;-69
2021/05/15 03:49:24;;;;;;;22.60;9.77;;;11.80;99.90;;;;;;4958633;29;20219;-70
2021/05/15 03:51:51;;;;;;;23.07;9.87;;;11.80;99.90;;;;;;4958505;29;20228;-71
2021/05/15 03:54:17;;;;;;;24.17;10.20;;;11.80;99.90;;;;;;4958485;29;20215;-70
2021/05/15 03:56:44;;;;;;;24.40;10.03;;;11.70;99.90;;;;;;4958169;29;20223;-70
2021/05/15 03:59:10;;;;;;;22.90;10.00;;;11.80;99.90;;;;;;4958365;29;20240;-70
2021/05/15 04:01:36;;;;;;;21.97;10.07;;;11.70;99.90;;;;;;4958342;29;20212;-70
2021/05/15 04:04:03;;;;;;;25.43;10.60;;;11.70;99.90;;;;;;4958143;29;20215;-70
2021/05/15 04:06:30;;;;;;;24.70;11.53;;;11.70;99.90;;;;;;4958609;29;20212;-70
2021/05/15 04:08:57;;;;;;;26.50;12.20;;;11.70;99.90;;;;;;4957900;29;20208;-70
2021/05/15 04:11:23;;;;;;;27.40;11.90;;;11.70;99.90;;;;;;4958125;29;20220;-70
2021/05/15 04:13:54;;;;;;;29.90;12.40;;;11.60;99.90;;;;;;4957677;29;20291;-70
2021/05/15 04:16:26;;;;;;;23.83;10.70;;;11.50;99.90;;;;;;4958100;29;20204;-70
2021/05/15 04:18:52;;;;;;;29.13;11.83;;;11.50;99.90;;;;;;4957869;29;20240;-69
2021/05/15 04:21:18;;;;;;;24.63;10.77;;;11.50;99.90;;;;;;4957652;29;20611;-70
2021/05/15 04:23:45;;;;;;;26.30;12.33;;;11.40;99.90;;;;;;4957875;29;20322;-70
2021/05/15 04:26:11;;;;;;;24.50;12.00;;;11.40;99.90;;;;;;4957927;29;20216;-70
2021/05/15 04:28:38;;;;;;;28.63;10.73;;;11.40;99.90;;;;;;4958095;29;20567;-70
2021/05/15 04:31:06;;;;;;;22.73;10.63;;;11.30;99.90;;;;;;4957757;29;20208;-70
2021/05/15 04:33:32;;;;;;;26.43;11.20;;;11.30;99.90;;;;;;4957422;29;20232;-70
2021/05/15 04:36:00;;;;;;;22.73;10.50;;;11.30;99.90;;;;;;4957666;29;20212;-70
2021/05/15 04:38:27;;;;;;;30.33;12.13;;;11.40;99.90;;;;;;4957772;29;20231;-70
2021/05/15 04:40:53;;;;;;;28.70;11.63;;;11.40;99.90;;;;;;4957826;29;20207;-70
2021/05/15 04:43:19;;;;;;;26.77;12.30;;;11.50;99.90;;;;;;4957460;29;20286;-70
2021/05/15 04:45:46;;;;;;;23.67;10.60;;;11.70;99.90;;;;;;4957561;29;20235;-70
2021/05/15 04:48:13;;;;;;;27.60;11.13;;;11.80;99.90;;;;;;4957628;28;20215;-70
2021/05/15 04:50:39;;;;;;;26.47;11.37;;;12.10;99.90;;;;;;4957234;29;20222;-70
2021/05/15 04:53:06;;;;;;;27.30;11.63;;;12.30;99.90;;;;;;4957483;29;20291;-70
2021/05/15 04:55:33;;;;;;;21.40;10.73;;;12.40;99.90;;;;;;4957154;29;20579;-70
2021/05/15 04:58:00;;;;;;;22.13;10.57;;;12.50;99.90;;;;;;4956985;29;20208;-69
2021/05/15 05:00:27;;;;;;;22.30;10.60;;;12.60;99.90;;;;;;4957249;29;20567;-70
2021/05/15 05:02:54;;;;;;;21.93;10.93;;;12.50;99.90;;;;;;4957020;29;20228;-70
2021/05/15 05:05:22;;;;;;;21.17;10.13;;;12.40;99.90;;;;;;4956893;29;20551;-70
2021/05/15 05:07:50;;;;;;;21.17;10.73;;;12.40;99.90;;;;;;4956856;29;20563;-70
2021/05/15 05:10:17;;;;;;;26.13;11.13;;;12.40;99.90;;;;;;4957078;29;20251;-70
2021/05/15 05:12:43;;;;;;;27.07;11.40;;;12.40;99.90;;;;;;4956823;29;20232;-70
2021/05/15 05:15:09;;;;;;;23.43;11.87;;;12.40;99.90;;;;;;4956988;29;20208;-70
2021/05/15 05:17:36;;;;;;;22.93;11.40;;;12.40;99.90;;;;;;4956757;29;20212;-70
2021/05/15 05:20:02;;;;;;;27.73;12.20;;;12.30;99.90;;;;;;4956794;29;20591;-70
2021/05/15 05:22:29;;;;;;;26.47;12.20;;;12.30;99.90;;;;;;4956885;29;20228;-70
2021/05/15 05:24:57;;;;;;;28.23;12.27;;;12.40;99.90;;;;;;4956928;29;20219;-70
2021/05/15 05:27:23;;;;;;;25.73;11.83;;;12.40;99.90;;;;;;4956615;29;20287;-70
2021/05/15 05:29:49;;;;;;;24.53;12.40;;;12.40;99.90;;;;;;4956471;29;20267;-70
2021/05/15 05:32:16;;;;;;;22.40;11.73;;;12.40;99.90;;;;;;4956485;29;20699;-69
2021/05/15 05:34:43;;;;;;;20.47;10.77;;;12.60;99.90;;;;;;4956796;29;20239;-70
2021/05/15 05:37:09;;;;;;;21.33;10.70;;;12.60;99.90;;;;;;4956524;29;20208;-71
2021/05/15 05:39:37;;;;;;;23.97;11.30;;;12.70;99.90;;;;;;4956347;29;20231;-69
2021/05/15 05:42:04;;;;;;;26.17;12.37;;;12.80;99.90;;;;;;4956326;29;20391;-70
2021/05/15 05:44:30;;;;;;;22.80;11.40;;;12.80;99.90;;;;;;4956512;29;20576;-69
2021/05/15 05:46:56;;;;;;;22.80;11.83;;;12.90;99.90;;;;;;4956051;29;20212;-70
2021/05/15 05:49:22;;;;;;;23.63;12.10;;;13.00;99.90;;;;;;4956225;29;20275;-70
2021/05/15 05:51:49;;;;;;;20.83;10.97;;;13.10;99.90;;;;;;4956133;29;20675;-70
2021/05/15 05:54:15;;;;;;;22.00;11.30;;;13.50;99.90;;;;;;4955912;29;20212;-71
2021/05/15 05:56:42;;;;;;;18.00;9.97;;;14.10;99.90;;;;;;4955452;29;20215;-70
2021/05/15 05:59:09;;;;;;;19.30;9.97;;;14.90;99.90;;;;;;4954761;28;20240;-70
2021/05/15 06:01:36;;;;;;;18.70;9.93;;;15.60;99.90;;;;;;4955994;29;20216;-70
2021/05/15 06:04:02;;;;;;;15.97;8.67;;;16.30;99.90;;;;;;4956071;29;20212;-70
2021/05/15 06:06:28;;;;;;;16.43;9.17;;;16.80;99.90;;;;;;4956134;29;20212;-71
2021/05/15 06:08:56;;;;;;;15.73;9.00;;;16.80;99.90;;;;;;4955893;29;20204;-70
2021/05/15 06:11:23;;;;;;;14.87;8.73;;;16.80;99.90;;;;;;4955801;29;20208;-70
2021/05/15 06:13:50;;;;;;;13.13;7.47;;;16.90;99.90;;;;;;4955710;29;20703;-70
2021/05/15 06:16:16;;;;;;;14.07;7.80;;;17.30;99.90;;;;;;4955809;29;20209;-70
2021/05/15 06:18:42;;;;;;;12.90;7.40;;;17.40;99.90;;;;;;4955826;29;20227;-70
2021/05/15 06:21:08;;;;;;;12.10;6.90;;;17.60;99.90;;;;;;4955796;29;20292;-70
2021/05/15 06:23:34;;;;;;;11.37;5.77;;;17.10;99.90;;;;;;4955452;29;20714;-70
2021/05/15 06:26:06;;;;;;;11.90;6.93;;;16.30;99.90;;;;;;4955631;29;20219;-69
2021/05/15 06:28:32;;;;;;;11.63;7.17;;;15.60;99.90;;;;;;4955375;29;20208;-70
2021/05/15 06:31:00;;;;;;;12.63;6.97;;;15.00;99.90;;;;;;4955569;29;20212;-70
2021/05/15 06:33:26;;;;;;;10.40;6.43;;;14.60;99.90;;;;;;4955304;29;20725;-70
2021/05/15 06:35:52;;;;;;;10.23;5.70;;;14.40;99.90;;;;;;4955425;29;20215;-70
2021/05/15 06:38:18;;;;;;;11.80;6.10;;;14.40;99.90;;;;;;4955341;29;20208;-69
2021/05/15 06:40:45;;;;;;;9.60;5.50;;;14.60;99.90;;;;;;4955356;29;20219;-70
2021/05/15 06:43:11;;;;;;;10.20;5.93;;;14.50;99.90;;;;;;4955129;29;20580;-69
2021/05/15 06:45:37;;;;;;;8.10;5.23;;;14.60;99.90;;;;;;4955309;29;20671;-69
2021/05/15 06:48:05;;;;;;;6.93;4.23;;;15.00;99.90;;;;;;4955191;29;20231;-70
2021/05/15 06:50:32;;;;;;;7.10;4.50;;;15.50;99.90;;;;;;4955300;29;20714;-69
2021/05/15 06:52:58;;;;;;;8.37;4.67;;;15.90;99.90;;;;;;4955098;29;20227;-69
2021/05/15 06:55:26;;;;;;;8.90;4.10;;;16.70;99.90;;;;;;4955206;29;20231;-70
2021/05/15 06:57:52;;;;;;;6.77;4.07;;;17.50;99.90;;;;;;4955008;29;20235;-69
2021/05/15 07:00:19;;;;;;;6.13;3.87;;;17.80;99.90;;;;;;4955061;29;20328;-70
2021/05/15 07:02:45;;;;;;;5.10;3.37;;;17.90;99.90;;;;;;4955172;29;20232;-70
2021/05/15 07:05:13;;;;;;;5.50;3.37;;;17.50;99.90;;;;;;4955131;29;20255;-70
2021/05/15 07:07:39;;;;;;;5.20;3.50;;;17.60;99.90;;;;;;4954904;29;20208;-70
2021/05/15 07:10:06;;;;;;;6.83;3.33;;;17.40;99.90;;;;;;4954576;29;20208;-70
2021/05/15 07:12:33;;;;;;;5.63;3.03;;;17.30;99.90;;;;;;4954552;29;20239;-70
2021/05/15 07:14:59;;;;;;;5.40;3.37;;;16.90;99.90;;;;;;4955234;29;20219;-69
2021/05/15 07:17:26;;;;;;;7.03;3.50;;;16.30;99.90;;;;;;4955197;29;20207;-70
2021/05/15 07:19:52;;;;;;;5.57;3.40;;;15.90;99.90;;;;;;4955001;29;20243;-69
2021/05/15 07:22:22;;;;;;;5.00;3.20;;;15.50;99.90;;;;;;4954982;29;20232;-69
2021/05/15 07:24:49;;;;;;;6.20;3.30;;;14.90;99.90;;;;;;4954856;29;20203;-69
2021/05/15 07:27:16;;;;;;;7.03;3.27;;;14.70;99.90;;;;;;4954733;29;20207;-69
2021/05/15 07:29:42;;;;;;;4.80;3.17;;;14.50;99.90;;;;;;4954999;29;20208;-70
2021/05/15 07:32:09;;;;;;;5.53;3.63;;;14.40;99.90;;;;;;4954744;29;20228;-70
2021/05/15 07:34:35;;;;;;;5.57;3.27;;;14.20;99.90;;;;;;4954815;29;20678;-71
2021/05/15 07:37:01;;;;;;;6.03;3.50;;;14.00;99.90;;;;;;4954766;29;20219;-72
2021/05/15 07:39:28;;;;;;;5.07;3.30;;;13.80;99.90;;;;;;4954657;29;20243;-71
2021/05/15 07:41:55;;;;;;;8.03;3.60;;;13.50;99.90;;;;;;4954613;29;20243;-71
2021/05/15 07:44:23;;;;;;;6.53;3.60;;;13.40;99.90;;;;;;4954799;29;20216;-71
2021/05/15 07:46:49;;;;;;;6.57;3.70;;;13.20;99.90;;;;;;4954789;29;20204;-71
2021/05/15 07:49:17;;;;;;;6.43;3.97;;;13.10;99.90;;;;;;4954718;29;20560;-72
2021/05/15 07:51:43;;;;;;;7.63;3.70;;;13.20;99.90;;;;;;4954476;29;20204;-71
2021/05/15 07:54:10;;;;;;;5.50;3.47;;;13.40;99.90;;;;;;4954655;29;20278;-71
2021/05/15 07:56:37;;;;;;;7.90;3.77;;;13.40;99.90;;;;;;4954293;29;20734;-71
2021/05/15 07:59:03;;;;;;;7.10;3.87;;;13.40;99.90;;;;;;4954512;29;20239;-72
2021/05/15 08:01:30;;;;;;;6.07;3.50;;;13.50;99.90;;;;;;4955289;29;20212;-69
2021/05/15 08:03:56;;;;;;;5.47;3.03;;;13.70;99.90;;;;;;4954870;29;20660;-68
2021/05/15 08:06:22;;;;;;;8.33;3.90;;;13.80;99.90;;;;;;4954833;29;20216;-71
2021/05/15 08:08:48;;;;;;;5.43;3.30;;;14.10;99.90;;;;;;4954684;29;20667;-70
2021/05/15 08:11:17;;;;;;;6.53;3.23;;;14.30;99.90;;;;;;4954621;29;20212;-70
2021/05/15 08:13:44;;;;;;;6.87;3.33;;;14.50;99.90;;;;;;4954658;29;20231;-70
2021/05/15 08:16:12;;;;;;;4.43;2.93;;;14.70;99.90;;;;;;4954795;29;20263;-70
2021/05/15 08:18:38;;;;;;;6.30;3.07;;;14.70;99.90;;;;;;4954321;29;20224;-70
2021/05/15 08:21:05;;;;;;;6.77;3.00;;;14.30;99.90;;;;;;4954122;29;20675;-70
2021/05/15 08:23:35;;;;;;;4.33;2.70;;;14.20;99.90;;;;;;4957332;28;20316;-70
2021/05/15 08:26:01;;;;;;;5.23;3.03;;;14.00;99.90;;;;;;4957905;29;20682;-71
2021/05/15 08:28:28;;;;;;;7.30;2.77;;;13.90;99.90;;;;;;4957917;29;20251;-70
2021/05/15 08:30:55;;;;;;;4.87;2.53;;;13.60;99.90;;;;;;4957853;29;20259;-70
2021/05/15 08:33:21;;;;;;;4.93;2.50;;;13.70;99.90;;;;;;4957360;29;20699;-70
2021/05/15 08:35:47;;;;;;;4.07;2.30;;;13.70;99.90;;;;;;4957452;29;20208;-70
2021/05/15 08:38:13;;;;;;;5.63;2.33;;;13.70;99.90;;;;;;4957625;29;20208;-70
2021/05/15 08:40:40;;;;;;;4.27;2.43;;;13.80;99.90;;;;;;4957754;29;20219;-70
2021/05/15 08:43:07;;;;;;;4.00;2.33;;;14.10;99.90;;;;;;4957418;29;20239;-70
2021/05/15 08:45:34;;;;;;;3.73;2.20;;;14.40;99.90;;;;;;4957291;29;20223;-70
2021/05/15 08:48:04;;;;;;;5.00;2.43;;;14.40;99.90;;;;;;4957394;29;20215;-70
2021/05/15 08:50:31;;;;;;;3.97;2.30;;;14.30;99.90;;;;;;4957669;29;20552;-70
2021/05/15 08:53:00;;;;;;;3.73;2.10;;;14.30;99.90;;;;;;4958001;29;20235;-70
2021/05/15 08:55:29;;;;;;;4.07;2.40;;;14.50;99.90;;;;;;4957329;29;20219;-70
2021/05/15 08:57:56;;;;;;;3.73;2.10;;;14.70;99.90;;;;;;4957524;29;20643;-70
2021/05/15 09:00:25;;;;;;;3.57;1.90;;;14.90;99.90;;;;;;4957344;29;20239;-71
2021/05/15 09:02:54;;;;;;;4.13;2.57;;;14.90;99.90;;;;;;4956928;29;20232;-70
2021/05/15 09:05:22;;;;;;;6.30;1.90;;;14.80;99.90;;;;;;4957220;29;20259;-70
2021/05/15 09:07:52;;;;;;;4.53;2.13;;;15.10;99.90;;;;;;4957139;29;20207;-71
2021/05/15 09:10:20;;;;;;;2.90;1.37;;;15.30;99.90;;;;;;4957107;29;20276;-70
2021/05/15 09:12:47;;;;;;;2.23;1.37;;;15.30;99.90;;;;;;4956828;29;20228;-70
2021/05/15 09:15:15;;;;;;;2.87;1.40;;;15.40;99.90;;;;;;4956837;29;20211;-70
2021/05/15 09:17:43;;;;;;;2.83;1.40;;;15.60;99.90;;;;;;4957099;29;20212;-71
2021/05/15 09:20:10;;;;;;;2.63;1.20;;;15.80;99.90;;;;;;4956893;29;20236;-70
2021/05/15 09:22:38;;;;;;;2.63;1.33;;;16.10;99.90;;;;;;4956587;29;20702;-70
2021/05/15 09:25:06;;;;;;;3.20;0.97;;;16.20;99.90;;;;;;4956786;29;20212;-70
2021/05/15 09:27:34;;;;;;;3.57;1.10;;;16.40;99.90;;;;;;4956696;29;20208;-70
2021/05/15 09:30:00;;;;;;;2.50;0.90;;;16.30;99.90;;;;;;4956883;29;20250;-71
2021/05/15 09:32:31;;;;;;;1.87;0.87;;;16.30;99.90;;;;;;4956817;29;20336;-71
2021/05/15 09:34:59;;;;;;;1.20;0.90;;;16.50;99.90;;;;;;4955684;28;20726;-70
2021/05/15 09:37:31;;;;;;;1.40;1.00;;;16.70;99.90;;;;;;4956527;29;20324;-70
2021/05/15 09:40:08;;;;;;;4.37;1.23;;;16.80;99.90;;;;;;4956501;29;20326;-70
2021/05/15 09:42:44;;;;;;;2.83;0.80;;;16.40;99.90;;;;;;4956447;29;20231;-70
2021/05/15 09:45:19;;;;;;;1.47;0.90;;;16.30;99.90;;;;;;4957109;29;20230;-69
2021/05/15 09:47:56;;;;;;;2.37;0.90;;;16.60;99.90;;;;;;4956385;29;20705;-71
2021/05/15 09:50:24;;;;;;;1.30;0.90;;;17.00;99.90;;;;;;4956492;29;20216;-70
2021/05/15 09:52:51;;;;;;;2.47;0.70;;;16.90;99.90;;;;;;4955942;29;20236;-70
2021/05/15 09:55:18;;;;;;;3.93;0.90;;;16.90;99.90;;;;;;4956258;29;20631;-70
2021/05/15 09:57:55;;;;;;;1.93;0.80;;;16.90;99.90;;;;;;4956272;29;20222;-69
2021/05/15 10:00:21;;;;;;;1.00;0.77;;;16.80;99.90;;;;;;4956251;29;20306;-70
2021/05/15 10:02:54;;;;;;;1.67;0.97;;;16.80;99.90;;;;;;4956290;29;20230;-70
2021/05/15 10:05:21;;;;;;;1.63;0.50;;;17.10;99.90;;;;;;4956323;29;20215;-70
2021/05/15 10:07:47;;;;;;;1.40;0.70;;;17.40;99.90;;;;;;4956429;29;20230;-71
2021/05/15 10:10:13;;;;;;;2.80;0.50;;;16.70;99.90;;;;;;4956145;29;20267;-70
2021/05/15 10:12:41;;;;;;;1.37;0.50;;;16.50;99.90;;;;;;4955875;29;20568;-70
2021/05/15 10:15:09;;;;;;;2.93;0.90;;;16.20;99.90;;;;;;4956133;29;20235;-69
2021/05/15 10:17:36;;;;;;;2.60;0.50;;;16.10;99.90;;;;;;4955788;29;20204;-70
2021/05/15 10:20:07;;;;;;;0.80;0.60;;;15.90;99.90;;;;;;4955598;29;20247;-70
2021/05/15 10:22:37;;;;;;;1.10;0.60;;;15.60;99.90;;;;;;4955847;29;20274;-69
2021/05/15 10:25:10;;;;;;;2.20;0.60;;;15.60;99.90;;;;;;4955536;29;20207;-70
2021/05/15 10:27:37;;;;;;;1.07;0.50;;;15.70;99.90;;;;;;4955487;29;20215;-70
2021/05/15 10:30:14;;;;;;;3.43;0.77;;;15.70;99.90;;;;;;4942210;28;20217;-70
2021/05/15 10:32:56;;;;;;;2.70;0.57;;;15.60;99.90;;;;;;4949579;28;20232;-70
2021/05/15 10:35:33;;;;;;;0.77;0.30;;;15.20;99.90;;;;;;4946470;28;20675;-70
2021/05/15 10:38:10;;;;;;;0.93;0.30;;;14.80;99.90;;;;;;4954072;29;20315;-70
2021/05/15 10:40:45;;;;;;;1.10;0.53;;;15.10;99.90;;;;;;4946272;28;20235;-70
2021/05/15 10:43:12;;;;;;;1.20;0.30;;;15.30;99.90;;;;;;4942168;28;20228;-71
2021/05/15 10:45:41;;;;;;;0.60;0.33;;;15.90;99.90;;;;;;4945238;28;20292;-70
2021/05/15 10:48:22;;;;;;;1.07;0.30;;;16.30;99.90;;;;;;4947225;28;20276;-71
2021/05/15 10:50:51;;;;;;;0.90;0.20;;;16.70;99.90;;;;;;4949744;28;20213;-71
2021/05/15 10:53:22;;;;;;;0.43;0.37;;;17.00;99.90;;;;;;4943579;28;21016;-71
2021/05/15 10:56:11;;;;;;;2.30;0.50;;;17.10;99.90;;;;;;4949424;29;20302;-72
2021/05/15 10:58:40;;;;;;;0.60;0.40;;;16.80;99.90;;;;;;4943428;28;20263;-72
2021/05/15 11:01:12;;;;;;;0.50;0.20;;;16.50;99.90;;;;;;4940005;28;20212;-74
2021/05/15 11:03:39;;;;;;;4.03;0.40;;;16.50;99.90;;;;;;4946398;29;20270;-75
2021/05/15 11:06:24;;;;;;;2.20;0.40;;;16.20;99.90;;;;;;4942759;28;20240;-72
2021/05/15 11:08:58;;;;;;;2.30;0.57;;;16.10;99.90;;;;;;4937979;28;20210;-67
2021/05/15 11:11:36;;;;;;;1.57;0.50;;;15.50;99.90;;;;;;4948998;28;20724;-68
2021/05/15 11:14:03;;;;;;;1.20;0.63;;;15.10;99.90;;;;;;4942857;29;20275;-70
2021/05/15 11:16:32;;;;;;;1.43;0.50;;;15.00;99.90;;;;;;4939159;28;20247;-69
2021/05/15 11:19:08;;;;;;;1.93;0.50;;;15.00;99.90;;;;;;4943740;28;20602;-66
2021/05/15 11:21:36;;;;;;;0.87;0.37;;;14.80;99.90;;;;;;4948683;29;20208;-71
2021/05/15 11:24:04;;;;;;;0.73;0.50;;;14.60;99.90;;;;;;4943809;28;20271;-70
2021/05/15 11:26:48;;;;;;;1.47;0.63;;;14.50;99.90;;;;;;4946408;28;20556;-68
2021/05/15 11:29:14;;;;;;;2.63;0.60;;;14.60;99.90;;;;;;4943304;28;20212;-70
2021/05/15 11:31:41;;;;;;;1.80;0.60;;;14.40;99.90;;;;;;4944721;28;20211;-69
2021/05/15 11:34:12;;;;;;;1.10;0.40;;;14.30;99.90;;;;;;4942918;28;20667;-68
2021/05/15 11:36:41;;;;;;;2.07;0.53;;;14.00;99.90;;;;;;4950161;28;20311;-69
2021/05/15 11:39:10;;;;;;;1.40;0.60;;;13.80;99.90;;;;;;4946628;29;20246;-71
2021/05/15 11:41:37;;;;;;;4.43;0.80;;;13.60;99.90;;;;;;4941781;28;20208;-74
2021/05/15 11:44:04;;;;;;;2.07;0.70;;;13.70;99.90;;;;;;4949967;29;20207;-69
2021/05/15 11:46:30;;;;;;;1.60;0.40;;;13.70;99.90;;;;;;4949388;29;20667;-75
2021/05/15 11:48:57;;;;;;;2.23;0.53;;;13.80;99.90;;;;;;4951532;29;20242;-71
2021/05/15 11:51:26;;;;;;;2.60;0.60;;;13.90;99.90;;;;;;4951536;29;20215;-71
2021/05/15 11:53:54;;;;;;;2.73;0.60;;;14.00;99.90;;;;;;4953501;29;20309;-71
2021/05/15 11:56:22;;;;;;;2.63;0.70;;;14.00;99.90;;;;;;4953188;28;20220;-71
2021/05/15 11:58:50;;;;;;;2.33;0.80;;;14.10;99.90;;;;;;4957162;29;20230;-70
2021/05/15 12:01:17;;;;;;;1.87;0.50;;;14.20;99.90;;;;;;4956506;29;20210;-71
2021/05/15 12:03:43;;;;;;;2.40;0.40;;;14.10;99.90;;;;;;4957840;29;20243;-71
2021/05/15 12:06:14;;;;;;;3.17;1.20;;;14.00;99.90;;;;;;4957808;29;20208;-71
2021/05/15 12:08:40;;;;;;;2.27;0.80;;;14.00;99.90;;;;;;4957887;29;20754;-71
2021/05/15 12:11:08;;;;;;;1.60;0.70;;;14.30;99.90;;;;;;4957299;29;20208;-71
2021/05/15 12:13:34;;;;;;;1.27;0.60;;;14.30;99.90;;;;;;4952043;29;20228;-73
2021/05/15 12:16:02;;;;;;;2.37;0.50;;;14.40;99.90;;;;;;4947176;29;20204;-73
2021/05/15 12:18:28;;;;;;;1.17;0.40;;;14.50;99.90;;;;;;4948676;29;20200;-71
2021/05/15 12:20:55;;;;;;;1.90;0.40;;;14.50;99.90;;;;;;4946922;29;20232;-70
2021/05/15 12:23:24;;;;;;;1.13;0.40;;;14.40;99.90;;;;;;4946702;29;20631;-72
2021/05/15 12:25:58;;;;;;;0.67;0.50;;;14.40;99.90;;;;;;4949736;29;20725;-72
2021/05/15 12:28:26;;;;;;;0.50;0.50;;;14.40;99.90;;;;;;4946601;29;20213;-72
2021/05/15 12:30:54;;;;;;;2.40;0.50;;;14.20;99.90;;;;;;4948872;29;20274;-70
2021/05/15 12:33:22;;;;;;;3.33;0.40;;;14.10;99.90;;;;;;4948234;29;20238;-70
2021/05/15 12:36:03;;;;;;;0.80;0.50;;;14.10;99.90;;;;;;4949123;29;20256;-70
2021/05/15 12:38:32;;;;;;;1.30;0.67;;;14.00;99.90;;;;;;4947928;29;20533;-70
2021/05/15 12:41:10;;;;;;;1.73;0.60;;;14.00;99.90;;;;;;4947802;29;20251;-70
2021/05/15 12:43:38;;;;;;;1.33;0.80;;;14.20;99.90;;;;;;4949622;29;20226;-70